Time;durP1;ratioP1;P1;durP2;ratioP2;P2;SDS_P1;SDS_P2;PMS_P1;PMS_P2;Temp;Humidity;BMP_temperature;BMP_pressure;BME280_temperature;BME280_humidity;BME280_pressure;Samples;Min_cycle;Max_cycle;Signal;HPM_P1;HPM_P2
2022/06/02 00:01:33;;;;;;;54.70;9.63;;;;;;;;;;5030282;28;20107;-52
2022/06/02 00:04:09;;;;;;;44.65;8.50;;;;;;;;;;5030449;28;20114;-49
2022/06/02 00:06:59;;;;;;;51.25;9.02;;;;;;;;;;5030597;28;20022;-51
2022/06/02 00:09:26;;;;;;;36.97;7.78;;;;;;;;;;5030143;28;20035;-47
2022/06/02 00:11:55;;;;;;;55.83;9.18;;;;;;;;;;5029602;28;20065;-52
2022/06/02 00:14:26;;;;;;;39.97;7.93;;;;;;;;;;5029701;28;20044;-52
2022/06/02 00:17:02;;;;;;;46.28;8.60;;;;;;;;;;5030255;28;20017;-52
2022/06/02 00:19:38;;;;;;;48.60;9.88;;;;;;;;;;5029143;28;20041;-55
2022/06/02 00:22:13;;;;;;;48.47;8.70;;;;;;;;;;5029065;28;20127;-49
2022/06/02 00:25:00;;;;;;;47.60;7.60;;;;;;;;;;5029501;28;20487;-52
2022/06/02 00:27:27;;;;;;;56.40;8.85;;;;;;;;;;5029424;28;20029;-48
2022/06/02 00:30:04;;;;;;;42.13;8.38;;;;;;;;;;5029743;28;20055;-52
2022/06/02 00:32:36;;;;;;;39.40;8.35;;;;;;;;;;5029846;28;20124;-51
2022/06/02 00:35:05;;;;;;;40.92;8.52;;;;;;;;;;5029424;28;20475;-48
2022/06/02 00:37:35;;;;;;;50.70;8.07;;;;;;;;;;5029875;28;20038;-49
2022/06/02 00:40:03;;;;;;;45.55;9.40;;;;;;;;;;5028398;28;20044;-53
2022/06/02 00:42:49;;;;;;;46.30;8.88;;;;;;;;;;5028651;28;20040;-49
2022/06/02 00:45:17;;;;;;;45.78;8.80;;;;;;;;;;5033816;28;20025;-47
2022/06/02 00:47:59;;;;;;;42.13;9.30;;;;;;;;;;5033586;28;20031;-52
2022/06/02 00:50:36;;;;;;;59.38;12.05;;;;;;;;;;5033479;28;20029;-49
2022/06/02 00:53:21;;;;;;;65.32;13.18;;;;;;;;;;5033308;28;20053;-48
2022/06/02 00:59:05;;;;;;;59.60;13.18;;;;;;;;;;5033764;28;20125;-53
2022/06/02 01:01:34;;;;;;;54.88;13.95;;;;;;;;;;5033033;28;20038;-50
2022/06/02 01:04:11;;;;;;;66.43;16.40;;;;;;;;;;5033171;28;20434;-51
2022/06/02 01:06:57;;;;;;;71.95;18.77;;;;;;;;;;5032104;28;20029;-52
2022/06/02 01:09:24;;;;;;;71.15;20.67;;;;;;;;;;5033685;28;20033;-50
2022/06/02 01:11:58;;;;;;;72.30;21.33;;;;;;;;;;5032694;28;20482;-51
2022/06/02 01:14:25;;;;;;;75.70;21.50;;;;;;;;;;5031775;28;20060;-50
2022/06/02 01:17:14;;;;;;;66.35;20.27;;;;;;;;;;5032947;28;20026;-52
2022/06/02 01:20:00;;;;;;;76.15;20.27;;;;;;;;;;5032422;28;20033;-53
2022/06/02 01:22:42;;;;;;;71.68;21.42;;;;;;;;;;5032728;28;20088;-53
2022/06/02 01:25:36;;;;;;;76.55;21.48;;;;;;;;;;5033313;28;20383;-47
2022/06/02 01:28:23;;;;;;;80.50;18.73;;;;;;;;;;5032466;28;20040;-51
2022/06/02 01:30:56;;;;;;;58.13;18.95;;;;;;;;;;5033228;28;20037;-48
2022/06/02 01:33:34;;;;;;;81.20;18.90;;;;;;;;;;5032001;28;20033;-55
2022/06/02 01:36:07;;;;;;;63.47;19.23;;;;;;;;;;5033272;28;20030;-50
2022/06/02 01:38:37;;;;;;;62.38;18.13;;;;;;;;;;5021878;28;20022;-49
2022/06/02 01:41:10;;;;;;;60.80;17.73;;;;;;;;;;5012612;28;20033;-52
2022/06/02 01:43:55;;;;;;;59.97;17.23;;;;;;;;;;5013433;28;20109;-49
2022/06/02 01:46:23;;;;;;;50.08;16.00;;;;;;;;;;5012700;28;20600;-51
2022/06/02 01:49:15;;;;;;;55.05;15.70;;;;;;;;;;5012411;28;20050;-53
2022/06/02 01:51:51;;;;;;;64.72;16.38;;;;;;;;;;5012403;28;20034;-51
2022/06/02 01:54:36;;;;;;;46.33;14.40;;;;;;;;;;5012220;28;20053;-52
2022/06/02 01:57:15;;;;;;;53.65;15.05;;;;;;;;;;5012464;28;20022;-52
2022/06/02 02:00:00;;;;;;;60.67;15.07;;;;;;;;;;5019636;28;20786;-52
2022/06/02 02:02:40;;;;;;;42.22;14.93;;;;;;;;;;5011370;28;20052;-48
2022/06/02 02:05:19;;;;;;;48.03;13.30;;;;;;;;;;5026860;28;20395;-49
2022/06/02 02:08:04;;;;;;;53.35;14.23;;;;;;;;;;5013226;28;20038;-49
2022/06/02 02:10:43;;;;;;;49.15;13.48;;;;;;;;;;5032687;28;20045;-46
2022/06/02 02:13:13;;;;;;;42.08;13.27;;;;;;;;;;5014720;28;20045;-52
2022/06/02 02:15:49;;;;;;;46.22;13.05;;;;;;;;;;5032929;28;20022;-48
2022/06/02 02:18:25;;;;;;;38.53;11.63;;;;;;;;;;5014783;28;20546;-51
2022/06/02 02:21:02;;;;;;;44.63;13.27;;;;;;;;;;5032941;28;20105;-50
2022/06/02 02:23:38;;;;;;;38.70;12.02;;;;;;;;;;5031996;28;20083;-49
2022/06/02 02:26:23;;;;;;;40.65;12.07;;;;;;;;;;5032801;28;20033;-51
2022/06/02 02:29:00;;;;;;;37.53;11.77;;;;;;;;;;5032163;28;20487;-49
2022/06/02 02:31:27;;;;;;;36.58;11.15;;;;;;;;;;5032432;28;20025;-50
2022/06/02 02:34:04;;;;;;;40.85;11.55;;;;;;;;;;5032452;28;20534;-51
2022/06/02 02:36:38;;;;;;;44.45;11.00;;;;;;;;;;5032791;28;20025;-52
2022/06/02 02:39:05;;;;;;;39.42;11.13;;;;;;;;;;5031566;28;20116;-48
2022/06/02 02:41:50;;;;;;;36.60;11.75;;;;;;;;;;5035355;28;20082;-49
2022/06/02 02:44:29;;;;;;;44.35;10.50;;;;;;;;;;5048397;28;20029;-48
2022/06/02 02:47:03;;;;;;;41.33;11.60;;;;;;;;;;5051547;28;20036;-46
2022/06/02 02:49:35;;;;;;;31.10;9.95;;;;;;;;;;5051651;28;20453;-50
2022/06/02 02:52:20;;;;;;;32.53;10.80;;;;;;;;;;5052525;28;20103;-46
2022/06/02 02:54:54;;;;;;;31.77;10.07;;;;;;;;;;5051535;28;20023;-47
2022/06/02 02:57:25;;;;;;;38.75;10.60;;;;;;;;;;5052126;28;20078;-47
2022/06/02 03:00:10;;;;;;;33.00;9.50;;;;;;;;;;5051755;28;20108;-51
2022/06/02 03:02:43;;;;;;;36.67;9.77;;;;;;;;;;5052097;28;20041;-47
2022/06/02 03:05:22;;;;;;;33.03;10.13;;;;;;;;;;5051558;28;20035;-46
2022/06/02 03:07:49;;;;;;;30.52;9.68;;;;;;;;;;5051663;28;20083;-46
2022/06/02 03:10:16;;;;;;;28.65;8.95;;;;;;;;;;5051596;28;20417;-50
2022/06/02 03:13:02;;;;;;;26.67;8.40;;;;;;;;;;5033728;28;20025;-50
2022/06/02 03:15:34;;;;;;;31.65;9.20;;;;;;;;;;5051428;28;20036;-46
2022/06/02 03:18:13;;;;;;;34.17;9.88;;;;;;;;;;5050641;28;20048;-47
2022/06/02 03:20:56;;;;;;;28.15;8.57;;;;;;;;;;5051647;28;20029;-49
2022/06/02 03:23:23;;;;;;;31.77;9.15;;;;;;;;;;5052036;28;20025;-50
2022/06/02 03:25:50;;;;;;;26.35;8.73;;;;;;;;;;5052399;28;20028;-49
2022/06/02 03:28:35;;;;;;;25.60;7.90;;;;;;;;;;5051078;28;20475;-46
2022/06/02 03:31:02;;;;;;;27.38;8.45;;;;;;;;;;5051635;28;20041;-50
2022/06/02 03:33:53;;;;;;;27.67;9.02;;;;;;;;;;5046002;28;20034;-49
2022/06/02 03:36:19;;;;;;;28.38;8.93;;;;;;;;;;5031369;28;20025;-46
2022/06/02 03:38:46;;;;;;;28.77;8.13;;;;;;;;;;5014256;28;20041;-46
2022/06/02 03:41:22;;;;;;;31.33;8.18;;;;;;;;;;5031484;28;20466;-46
2022/06/02 03:43:57;;;;;;;23.52;7.53;;;;;;;;;;5032212;28;20047;-47
2022/06/02 03:46:32;;;;;;;30.13;8.02;;;;;;;;;;5013571;28;20483;-49
2022/06/02 03:49:05;;;;;;;27.10;8.00;;;;;;;;;;5032070;28;20033;-50
2022/06/02 03:51:38;;;;;;;22.02;7.03;;;;;;;;;;5031268;28;20038;-49
2022/06/02 03:54:05;;;;;;;21.52;7.60;;;;;;;;;;5032296;28;20434;-49
2022/06/02 03:56:47;;;;;;;28.45;8.02;;;;;;;;;;5031191;28;20029;-47
2022/06/02 03:59:14;;;;;;;21.38;7.60;;;;;;;;;;5031825;28;20439;-49
2022/06/02 04:01:42;;;;;;;23.17;7.65;;;;;;;;;;5031045;28;20080;-48
2022/06/02 04:04:09;;;;;;;23.08;7.93;;;;;;;;;;5031954;28;20029;-47
2022/06/02 04:06:42;;;;;;;21.77;7.75;;;;;;;;;;5031228;28;20112;-46
2022/06/02 04:09:18;;;;;;;21.80;7.60;;;;;;;;;;5030876;28;20037;-51
2022/06/02 04:14:49;;;;;;;20.35;7.03;;;;;;;;;;5031661;28;20052;-46
2022/06/02 04:17:32;;;;;;;18.92;6.70;;;;;;;;;;5032073;28;20113;-48
2022/06/02 04:20:35;;;;;;;18.35;6.65;;;;;;;;;;5035737;28;20030;-45
2022/06/02 04:23:14;;;;;;;16.40;6.68;;;;;;;;;;5035353;28;20083;-47
2022/06/02 04:26:00;;;;;;;19.80;7.15;;;;;;;;;;5017856;28;20041;-48
2022/06/02 04:28:45;;;;;;;16.88;6.55;;;;;;;;;;5034733;28;20033;-51
2022/06/02 04:31:30;;;;;;;16.17;5.95;;;;;;;;;;5035696;28;20029;-48
2022/06/02 04:34:15;;;;;;;21.90;6.75;;;;;;;;;;5034895;28;20033;-48
2022/06/02 04:37:00;;;;;;;20.92;7.25;;;;;;;;;;5035645;28;20709;-49
2022/06/02 04:39:48;;;;;;;18.92;6.43;;;;;;;;;;5034842;28;20036;-50
2022/06/02 04:42:21;;;;;;;17.67;6.30;;;;;;;;;;5035354;28;20022;-45
2022/06/02 04:45:00;;;;;;;19.33;6.05;;;;;;;;;;5034394;28;20026;-49
2022/06/02 04:47:46;;;;;;;17.25;6.15;;;;;;;;;;5034795;28;20052;-48
2022/06/02 04:50:16;;;;;;;17.30;6.05;;;;;;;;;;5035089;28;20090;-51
2022/06/02 04:53:01;;;;;;;13.55;5.70;;;;;;;;;;5034258;28;20395;-48
2022/06/02 04:55:31;;;;;;;16.05;5.70;;;;;;;;;;5034084;28;20038;-45
2022/06/02 04:57:57;;;;;;;16.27;5.88;;;;;;;;;;5035055;28;20063;-48
2022/06/02 05:00:43;;;;;;;19.85;6.57;;;;;;;;;;5034584;28;20403;-50
2022/06/02 05:03:30;;;;;;;16.88;6.10;;;;;;;;;;5035235;28;20018;-46
2022/06/02 05:06:13;;;;;;;15.57;5.97;;;;;;;;;;5034427;28;20033;-50
2022/06/02 05:09:00;;;;;;;16.33;5.90;;;;;;;;;;5034767;28;20099;-48
2022/06/02 05:11:30;;;;;;;16.75;5.82;;;;;;;;;;5034289;28;20040;-47
2022/06/02 05:14:09;;;;;;;14.70;6.13;;;;;;;;;;5034606;28;20097;-46
2022/06/02 05:16:55;;;;;;;12.73;5.45;;;;;;;;;;5033895;28;20044;-50
2022/06/02 05:19:34;;;;;;;12.93;5.40;;;;;;;;;;5034694;28;20025;-45
2022/06/02 05:22:02;;;;;;;15.73;5.63;;;;;;;;;;5033994;28;20384;-46
2022/06/02 05:24:44;;;;;;;11.30;4.95;;;;;;;;;;5034092;28;20045;-51
2022/06/02 05:27:14;;;;;;;16.73;6.18;;;;;;;;;;5033870;28;20082;-51
2022/06/02 05:29:50;;;;;;;12.30;5.40;;;;;;;;;;5033223;28;20041;-47
2022/06/02 05:32:17;;;;;;;14.18;5.43;;;;;;;;;;5034249;28;20045;-49
2022/06/02 05:34:51;;;;;;;12.07;5.32;;;;;;;;;;5034005;28;20088;-48
2022/06/02 05:37:18;;;;;;;11.93;5.35;;;;;;;;;;5033649;28;20116;-48
2022/06/02 05:39:54;;;;;;;12.90;5.10;;;;;;;;;;5034221;28;20041;-45
2022/06/02 05:42:43;;;;;;;11.35;4.88;;;;;;;;;;5034410;28;20029;-45
2022/06/02 05:45:11;;;;;;;13.18;4.82;;;;;;;;;;5033104;28;20034;-46
2022/06/02 05:47:38;;;;;;;10.45;4.82;;;;;;;;;;5034081;28;20108;-46
2022/06/02 05:50:08;;;;;;;14.88;4.95;;;;;;;;;;5033985;28;20112;-48
2022/06/02 05:52:50;;;;;;;10.93;4.15;;;;;;;;;;5033423;28;20095;-45
2022/06/02 05:55:23;;;;;;;9.77;4.25;;;;;;;;;;5033915;28;20031;-49
2022/06/02 05:57:59;;;;;;;12.23;4.82;;;;;;;;;;5033151;28;20040;-48
2022/06/02 06:00:38;;;;;;;8.35;4.13;;;;;;;;;;5033119;28;20515;-49
2022/06/02 06:03:23;;;;;;;12.13;5.03;;;;;;;;;;5033910;28;20036;-47
2022/06/02 06:05:59;;;;;;;10.77;4.22;;;;;;;;;;5033298;28;20057;-48
2022/06/02 06:08:38;;;;;;;7.10;3.75;;;;;;;;;;5032785;28;20051;-45
2022/06/02 06:11:15;;;;;;;11.15;4.80;;;;;;;;;;5033838;28;20071;-46
2022/06/02 06:13:42;;;;;;;7.53;4.20;;;;;;;;;;5033370;28;20026;-48
2022/06/02 06:16:11;;;;;;;9.18;4.25;;;;;;;;;;5033227;28;20033;-48
2022/06/02 06:18:57;;;;;;;9.73;3.80;;;;;;;;;;5033611;28;20030;-48
2022/06/02 06:21:36;;;;;;;9.68;3.70;;;;;;;;;;5033220;28;20105;-48
2022/06/02 06:24:17;;;;;;;8.10;3.88;;;;;;;;;;5033311;28;20025;-50
2022/06/02 06:26:45;;;;;;;9.70;4.32;;;;;;;;;;5032641;28;20033;-49
2022/06/02 06:29:12;;;;;;;9.40;4.00;;;;;;;;;;5033042;28;20124;-46
2022/06/02 06:32:08;;;;;;;11.25;4.60;;;;;;;;;;5032455;28;20025;-47
2022/06/02 06:34:53;;;;;;;10.00;3.90;;;;;;;;;;4980002;28;20046;-46
2022/06/02 06:37:20;;;;;;;8.52;3.70;;;;;;;;;;5032732;28;20029;-45
2022/06/02 06:39:59;;;;;;;6.97;3.47;;;;;;;;;;5032535;28;20064;-48
2022/06/02 06:42:45;;;;;;;9.40;4.00;;;;;;;;;;5032629;28;20364;-46
2022/06/02 06:45:18;;;;;;;9.18;3.67;;;;;;;;;;5032279;28;20048;-47
2022/06/02 06:47:47;;;;;;;8.80;3.53;;;;;;;;;;5033095;28;20110;-47
2022/06/02 06:50:24;;;;;;;6.97;3.25;;;;;;;;;;5032483;28;20119;-49
2022/06/02 06:52:59;;;;;;;6.43;3.20;;;;;;;;;;5032701;28;20032;-49
2022/06/02 06:55:36;;;;;;;9.15;3.40;;;;;;;;;;5033017;28;20018;-48
2022/06/02 06:58:03;;;;;;;8.75;3.05;;;;;;;;;;5032193;28;20483;-48
2022/06/02 07:00:40;;;;;;;8.68;3.72;;;;;;;;;;5032724;28;20045;-45
2022/06/02 07:03:07;;;;;;;7.25;2.88;;;;;;;;;;5032124;28;20029;-47
2022/06/02 07:05:37;;;;;;;6.18;2.85;;;;;;;;;;5032635;28;20025;-48
2022/06/02 07:08:23;;;;;;;8.00;3.35;;;;;;;;;;5032264;28;20036;-50
2022/06/02 07:11:03;;;;;;;6.68;2.85;;;;;;;;;;5032833;28;20483;-46
2022/06/02 07:13:39;;;;;;;6.47;2.75;;;;;;;;;;5031768;28;20111;-51
2022/06/02 07:16:06;;;;;;;7.63;3.38;;;;;;;;;;5031814;28;20549;-45
2022/06/02 07:18:52;;;;;;;8.40;3.10;;;;;;;;;;5032332;28;20033;-48
2022/06/02 07:21:19;;;;;;;6.18;2.75;;;;;;;;;;5031805;28;20044;-52
2022/06/02 07:23:55;;;;;;;6.38;2.60;;;;;;;;;;5032045;28;20030;-45
2022/06/02 07:26:40;;;;;;;7.40;3.33;;;;;;;;;;5032246;28;20025;-48
2022/06/02 07:29:07;;;;;;;6.63;2.83;;;;;;;;;;5031675;28;20053;-47
2022/06/02 07:31:52;;;;;;;6.47;2.42;;;;;;;;;;5014315;28;20151;-45
2022/06/02 07:34:26;;;;;;;7.28;2.85;;;;;;;;;;5013799;28;20476;-49
2022/06/02 07:36:53;;;;;;;5.95;2.85;;;;;;;;;;5032086;28;20059;-49
2022/06/02 07:39:38;;;;;;;4.68;2.42;;;;;;;;;;5032152;28;20033;-51
2022/06/02 07:42:08;;;;;;;6.00;2.65;;;;;;;;;;5031463;28;20087;-48
2022/06/02 07:44:45;;;;;;;5.68;2.47;;;;;;;;;;5032396;28;20436;-46
2022/06/02 07:47:30;;;;;;;5.68;2.75;;;;;;;;;;5031570;28;20032;-45
2022/06/02 07:50:12;;;;;;;6.57;2.80;;;;;;;;;;5031929;28;20068;-51
2022/06/02 07:52:54;;;;;;;4.20;2.45;;;;;;;;;;5031124;28;20041;-45
2022/06/02 07:55:27;;;;;;;6.00;2.70;;;;;;;;;;5031231;28;20025;-47
2022/06/02 07:58:12;;;;;;;6.20;2.70;;;;;;;;;;5032038;28;20049;-47
2022/06/02 08:00:42;;;;;;;4.65;2.22;;;;;;;;;;5031143;28;20540;-48
2022/06/02 08:03:31;;;;;;;4.57;2.38;;;;;;;;;;5031951;28;20037;-52
2022/06/02 08:06:01;;;;;;;5.03;2.28;;;;;;;;;;5031797;28;20045;-49
2022/06/02 08:08:37;;;;;;;3.88;2.08;;;;;;;;;;5031115;28;20049;-47
2022/06/02 08:11:10;;;;;;;6.45;2.58;;;;;;;;;;5031287;28;20041;-48
2022/06/02 08:13:40;;;;;;;6.68;2.40;;;;;;;;;;5031876;28;20025;-46
2022/06/02 08:16:22;;;;;;;5.20;2.25;;;;;;;;;;5031729;28;20032;-45
2022/06/02 08:19:07;;;;;;;4.50;2.30;;;;;;;;;;5031753;28;20030;-49
2022/06/02 08:21:43;;;;;;;4.65;2.30;;;;;;;;;;5031364;28;20041;-46
2022/06/02 08:24:19;;;;;;;5.10;2.20;;;;;;;;;;5031867;28;20022;-50
2022/06/02 08:27:12;;;;;;;4.53;2.00;;;;;;;;;;5031694;28;20083;-48
2022/06/02 08:29:59;;;;;;;5.00;2.10;;;;;;;;;;5031010;28;20490;-47
2022/06/02 08:32:52;;;;;;;3.95;2.10;;;;;;;;;;5006476;28;20518;-48
2022/06/02 08:35:26;;;;;;;4.70;2.13;;;;;;;;;;5008638;28;20100;-49
2022/06/02 08:38:04;;;;;;;4.18;2.22;;;;;;;;;;5035525;28;20254;-48
2022/06/02 08:40:49;;;;;;;5.05;2.03;;;;;;;;;;5044471;28;20052;-48
2022/06/02 08:43:48;;;;;;;3.75;2.13;;;;;;;;;;5050787;28;20453;-49
2022/06/02 08:46:30;;;;;;;4.57;1.80;;;;;;;;;;5007035;28;20045;-46
2022/06/02 08:49:03;;;;;;;5.40;2.05;;;;;;;;;;5051413;28;20032;-53
2022/06/02 08:51:40;;;;;;;3.42;1.80;;;;;;;;;;5051435;28;20479;-48
2022/06/02 08:54:45;;;;;;;4.88;1.90;;;;;;;;;;5050611;28;20052;-48
2022/06/02 08:57:27;;;;;;;4.00;2.00;;;;;;;;;;4970461;28;20047;-49
2022/06/02 09:00:18;;;;;;;4.53;1.80;;;;;;;;;;4969715;28;20123;-48
2022/06/02 09:02:57;;;;;;;3.72;1.63;;;;;;;;;;5030415;28;20449;-48
2022/06/02 09:05:45;;;;;;;4.75;2.13;;;;;;;;;;5053856;28;20247;-46
2022/06/02 09:08:12;;;;;;;4.85;1.90;;;;;;;;;;5014209;28;20049;-51
2022/06/02 09:10:52;;;;;;;4.47;2.20;;;;;;;;;;5054370;28;20033;-47
2022/06/02 09:13:28;;;;;;;5.60;1.70;;;;;;;;;;5054841;28;20495;-51
2022/06/02 09:16:14;;;;;;;3.55;1.80;;;;;;;;;;5053768;28;20025;-50
2022/06/02 09:18:50;;;;;;;3.22;1.52;;;;;;;;;;5054282;28;20071;-46
2022/06/02 09:21:37;;;;;;;3.22;1.45;;;;;;;;;;5054228;28;20029;-49
2022/06/02 09:24:16;;;;;;;2.15;1.35;;;;;;;;;;5013498;28;20033;-50
2022/06/02 09:26:58;;;;;;;7.13;1.95;;;;;;;;;;5053808;28;20052;-50
2022/06/02 09:29:25;;;;;;;4.68;1.80;;;;;;;;;;5053945;28;20071;-48
2022/06/02 09:32:11;;;;;;;3.80;1.50;;;;;;;;;;5054282;28;20021;-47
2022/06/02 09:34:47;;;;;;;5.43;1.90;;;;;;;;;;5053796;28;20035;-52
2022/06/02 09:37:14;;;;;;;2.72;1.45;;;;;;;;;;5053033;28;20553;-49
2022/06/02 09:39:54;;;;;;;2.97;1.42;;;;;;;;;;5053953;28;20066;-47
2022/06/02 09:42:48;;;;;;;3.58;1.60;;;;;;;;;;5053038;28;20506;-47
2022/06/02 09:45:28;;;;;;;8.88;1.70;;;;;;;;;;5053590;28;20487;-46
2022/06/02 09:48:14;;;;;;;3.85;1.48;;;;;;;;;;5054043;28;20048;-47
2022/06/02 09:50:50;;;;;;;2.47;1.40;;;;;;;;;;5054062;28;20045;-51
2022/06/02 09:53:29;;;;;;;5.80;1.50;;;;;;;;;;5053258;28;20033;-48
2022/06/02 09:56:12;;;;;;;7.07;1.92;;;;;;;;;;5053058;28;20029;-47
2022/06/02 09:58:46;;;;;;;6.28;1.50;;;;;;;;;;5053666;28;20036;-47
2022/06/02 10:01:16;;;;;;;4.60;1.27;;;;;;;;;;5053065;28;20160;-46
2022/06/02 10:03:46;;;;;;;6.85;1.85;;;;;;;;;;5053079;28;20029;-52
2022/06/02 10:06:30;;;;;;;5.25;1.95;;;;;;;;;;5053233;28;20371;-53
2022/06/02 10:09:06;;;;;;;7.68;1.70;;;;;;;;;;5053530;28;20039;-47
2022/06/02 10:11:42;;;;;;;7.43;1.58;;;;;;;;;;5053755;28;20029;-51
2022/06/02 10:14:21;;;;;;;9.02;1.90;;;;;;;;;;5053192;28;20108;-49
2022/06/02 10:16:48;;;;;;;9.90;2.17;;;;;;;;;;5052196;28;20493;-47
2022/06/02 10:19:33;;;;;;;8.32;1.63;;;;;;;;;;5053241;28;20037;-46
2022/06/02 10:22:32;;;;;;;13.55;1.90;;;;;;;;;;5052910;28;20028;-45
2022/06/02 10:25:17;;;;;;;10.45;1.70;;;;;;;;;;5053136;28;20031;-48
2022/06/02 10:28:10;;;;;;;5.03;1.80;;;;;;;;;;5052549;28;20047;-48
2022/06/02 10:30:56;;;;;;;11.57;1.88;;;;;;;;;;5050125;28;20041;-48
2022/06/02 10:33:25;;;;;;;8.15;1.58;;;;;;;;;;5052399;28;20029;-54
2022/06/02 10:36:05;;;;;;;11.55;1.92;;;;;;;;;;5053309;28;20424;-46
2022/06/02 10:38:39;;;;;;;8.00;2.60;;;;;;;;;;5052728;28;20025;-51
2022/06/02 10:41:35;;;;;;;9.27;1.90;;;;;;;;;;5052500;28;20033;-48
2022/06/02 10:44:13;;;;;;;6.70;1.75;;;;;;;;;;5035723;28;20037;-45
2022/06/02 10:46:59;;;;;;;10.32;1.58;;;;;;;;;;5052073;28;20056;-48
2022/06/02 10:49:30;;;;;;;6.40;1.85;;;;;;;;;;5052475;28;20041;-47
2022/06/02 10:51:57;;;;;;;21.83;2.95;;;;;;;;;;5052458;28;20031;-48
2022/06/02 10:54:24;;;;;;;8.93;1.70;;;;;;;;;;5052343;28;20044;-48
2022/06/02 10:57:10;;;;;;;7.50;2.58;;;;;;;;;;5052407;28;20625;-51
2022/06/02 10:59:43;;;;;;;8.80;1.90;;;;;;;;;;5052736;28;20036;-49
2022/06/02 11:02:17;;;;;;;11.05;1.92;;;;;;;;;;5052081;28;20045;-51
2022/06/02 11:05:02;;;;;;;11.02;2.08;;;;;;;;;;5052536;28;20037;-47
2022/06/02 11:07:29;;;;;;;9.50;1.65;;;;;;;;;;5051767;28;20027;-49
2022/06/02 11:09:57;;;;;;;8.40;1.60;;;;;;;;;;5052178;28;20079;-47
2022/06/02 11:12:59;;;;;;;8.20;1.85;;;;;;;;;;5051516;28;20117;-48
2022/06/02 11:15:44;;;;;;;8.77;1.63;;;;;;;;;;4970399;28;20027;-51
2022/06/02 11:18:14;;;;;;;8.57;1.52;;;;;;;;;;5042992;28;20720;-49
2022/06/02 11:21:00;;;;;;;10.85;2.05;;;;;;;;;;5030465;28;20037;-50
2022/06/02 11:23:30;;;;;;;9.88;2.00;;;;;;;;;;5040751;28;20090;-49
2022/06/02 11:26:03;;;;;;;11.60;2.22;;;;;;;;;;5047188;28;20025;-53
2022/06/02 11:28:42;;;;;;;7.60;2.25;;;;;;;;;;5032549;28;20036;-50
2022/06/02 11:31:18;;;;;;;10.15;2.22;;;;;;;;;;5033723;28;20101;-53
2022/06/02 11:33:45;;;;;;;8.35;2.00;;;;;;;;;;5050600;28;20094;-52
2022/06/02 11:36:31;;;;;;;5.97;2.03;;;;;;;;;;5050588;28;20041;-49
2022/06/02 11:39:18;;;;;;;7.78;1.92;;;;;;;;;;5050850;28;20509;-51
2022/06/02 11:41:51;;;;;;;10.18;1.80;;;;;;;;;;5040524;28;20041;-49
2022/06/02 11:47:33;;;;;;;9.00;2.20;;;;;;;;;;5030137;28;20083;-55
2022/06/02 11:50:00;;;;;;;12.07;2.30;;;;;;;;;;5030577;28;20033;-55
2022/06/02 11:52:36;;;;;;;7.07;2.10;;;;;;;;;;5030861;28;20052;-53
2022/06/02 11:55:15;;;;;;;6.45;1.77;;;;;;;;;;5029559;28;20026;-54
2022/06/02 11:58:01;;;;;;;8.77;2.30;;;;;;;;;;5033579;28;20083;-53
2022/06/02 12:00:46;;;;;;;7.57;2.22;;;;;;;;;;5030506;28;20026;-52
2022/06/02 12:03:31;;;;;;;5.78;2.03;;;;;;;;;;5045775;28;20028;-50
2022/06/02 12:06:01;;;;;;;10.25;2.30;;;;;;;;;;5050312;28;20021;-50
2022/06/02 12:08:46;;;;;;;9.68;1.85;;;;;;;;;;5051024;28;20654;-55
2022/06/02 12:11:31;;;;;;;7.75;2.15;;;;;;;;;;5049867;28;20029;-50
2022/06/02 12:14:08;;;;;;;5.00;1.77;;;;;;;;;;5051190;28;20055;-52
2022/06/02 12:16:46;;;;;;;12.57;2.08;;;;;;;;;;5050705;28;20033;-49
2022/06/02 12:19:17;;;;;;;10.65;2.70;;;;;;;;;;5033063;28;20044;-51
2022/06/02 12:21:56;;;;;;;11.98;2.40;;;;;;;;;;5050356;28;20128;-50
2022/06/02 12:24:41;;;;;;;12.07;2.58;;;;;;;;;;5050377;28;20096;-52
2022/06/02 12:27:17;;;;;;;12.45;2.22;;;;;;;;;;5050529;28;20431;-50
2022/06/02 12:29:59;;;;;;;12.45;2.72;;;;;;;;;;5050755;28;20044;-50
2022/06/02 12:32:36;;;;;;;10.57;2.30;;;;;;;;;;5031934;28;20383;-52
2022/06/02 12:35:21;;;;;;;13.35;2.50;;;;;;;;;;5050832;28;20032;-51
2022/06/02 12:37:57;;;;;;;16.40;2.50;;;;;;;;;;5050494;28;20029;-52
2022/06/02 12:40:36;;;;;;;12.18;2.17;;;;;;;;;;5036620;28;20029;-61
2022/06/02 12:43:06;;;;;;;8.43;2.20;;;;;;;;;;5053906;28;20083;-49
2022/06/02 12:45:56;;;;;;;11.02;2.25;;;;;;;;;;5054341;28;20883;-53
2022/06/02 12:48:43;;;;;;;9.50;2.83;;;;;;;;;;5054229;28;20483;-51
2022/06/02 12:51:10;;;;;;;7.70;2.17;;;;;;;;;;5053316;28;20033;-51
2022/06/02 12:53:46;;;;;;;9.68;2.50;;;;;;;;;;5053321;28;21082;-52
2022/06/02 12:56:19;;;;;;;12.55;2.72;;;;;;;;;;5054770;28;20032;-57
2022/06/02 12:59:13;;;;;;;14.15;2.70;;;;;;;;;;5055799;28;20446;-54
2022/06/02 13:01:44;;;;;;;19.10;2.75;;;;;;;;;;5052353;28;20123;-56
2022/06/02 13:04:14;;;;;;;18.70;3.03;;;;;;;;;;5052530;28;20103;-55
2022/06/02 13:06:59;;;;;;;13.38;3.05;;;;;;;;;;5054459;28;20029;-54
2022/06/02 13:09:44;;;;;;;15.25;3.00;;;;;;;;;;5054088;28;20036;-54
2022/06/02 13:12:14;;;;;;;13.50;2.80;;;;;;;;;;5052537;28;20025;-53
2022/06/02 13:15:01;;;;;;;15.25;2.70;;;;;;;;;;5041123;28;20104;-50
2022/06/02 13:17:47;;;;;;;17.90;2.78;;;;;;;;;;5043256;28;20041;-51
2022/06/02 13:20:26;;;;;;;13.80;2.78;;;;;;;;;;5053131;28;20368;-49
2022/06/02 13:26:22;;;;;;;11.27;2.85;;;;;;;;;;5054422;28;20067;-51
2022/06/02 13:28:55;;;;;;;17.55;3.17;;;;;;;;;;5053753;28;20437;-51
2022/06/02 13:31:37;;;;;;;20.88;3.30;;;;;;;;;;5053649;28;20078;-53
2022/06/02 13:34:13;;;;;;;16.50;2.78;;;;;;;;;;5053106;28;20036;-53
2022/06/02 13:36:40;;;;;;;7.95;2.67;;;;;;;;;;5053675;28;20044;-50
2022/06/02 13:39:18;;;;;;;15.38;2.63;;;;;;;;;;5053000;28;20025;-50
2022/06/02 13:41:45;;;;;;;15.63;3.25;;;;;;;;;;5053710;28;20033;-53
2022/06/02 13:44:31;;;;;;;14.40;3.03;;;;;;;;;;5053204;28;20123;-52
2022/06/02 13:47:00;;;;;;;12.60;2.70;;;;;;;;;;5053336;28;20028;-55
2022/06/02 13:49:45;;;;;;;9.88;2.28;;;;;;;;;;5052600;28;20051;-53
2022/06/02 13:52:26;;;;;;;17.58;2.92;;;;;;;;;;5052656;28;20845;-51
2022/06/02 13:58:12;;;;;;;15.65;2.45;;;;;;;;;;5053097;28;20056;-50
2022/06/02 14:00:49;;;;;;;15.43;2.30;;;;;;;;;;5052996;28;20044;-54
2022/06/02 14:03:28;;;;;;;17.42;2.78;;;;;;;;;;5052794;28;20096;-52
2022/06/02 14:06:10;;;;;;;18.17;2.95;;;;;;;;;;5053164;28;20032;-47
2022/06/02 14:08:55;;;;;;;16.80;2.42;;;;;;;;;;5052211;28;20036;-51
2022/06/02 14:11:42;;;;;;;11.95;1.98;;;;;;;;;;5052932;28;20082;-51
2022/06/02 14:14:21;;;;;;;16.98;2.80;;;;;;;;;;5041661;28;20041;-50
2022/06/02 14:16:57;;;;;;;8.55;2.38;;;;;;;;;;5052543;28;20029;-50
2022/06/02 14:19:39;;;;;;;12.65;2.10;;;;;;;;;;5052771;28;20064;-51
2022/06/02 14:22:12;;;;;;;15.07;2.33;;;;;;;;;;5052706;28;20041;-53
2022/06/02 14:24:48;;;;;;;9.15;2.58;;;;;;;;;;5047128;28;20189;-53
2022/06/02 14:27:33;;;;;;;13.20;2.50;;;;;;;;;;5031646;28;20521;-53
2022/06/02 14:30:04;;;;;;;15.52;2.30;;;;;;;;;;5033084;28;20041;-50
2022/06/02 14:32:37;;;;;;;8.70;2.30;;;;;;;;;;5031962;28;20468;-47
2022/06/02 14:35:04;;;;;;;16.40;2.25;;;;;;;;;;5032660;28;20026;-46
2022/06/02 14:37:44;;;;;;;11.00;2.58;;;;;;;;;;5032535;28;20037;-46
2022/06/02 14:40:18;;;;;;;8.38;2.22;;;;;;;;;;5031121;28;20071;-46
2022/06/02 14:43:09;;;;;;;9.43;2.08;;;;;;;;;;5032321;28;20025;-47
2022/06/02 14:45:55;;;;;;;9.18;2.17;;;;;;;;;;5031940;28;20044;-46
2022/06/02 14:48:40;;;;;;;13.98;2.25;;;;;;;;;;5031328;28;20029;-47
2022/06/02 14:51:13;;;;;;;13.90;2.58;;;;;;;;;;5031665;28;20026;-46
2022/06/02 14:53:59;;;;;;;7.47;2.00;;;;;;;;;;5031981;28;20482;-47
2022/06/02 14:56:34;;;;;;;9.65;2.00;;;;;;;;;;5032010;28;20052;-50
2022/06/02 14:59:07;;;;;;;8.05;2.30;;;;;;;;;;5032086;28;20483;-47
2022/06/02 15:01:48;;;;;;;15.25;2.60;;;;;;;;;;5029764;28;20045;-46
2022/06/02 15:04:29;;;;;;;12.30;2.80;;;;;;;;;;5032189;28;20125;-45
2022/06/02 15:07:01;;;;;;;14.65;2.97;;;;;;;;;;5031624;28;20068;-47
2022/06/02 15:09:37;;;;;;;12.95;3.35;;;;;;;;;;5032345;28;20049;-44
2022/06/02 15:12:14;;;;;;;14.65;2.60;;;;;;;;;;5028944;28;20089;-45
2022/06/02 15:15:04;;;;;;;36.38;4.10;;;;;;;;;;5030185;28;20128;-49
2022/06/02 15:17:30;;;;;;;15.60;2.90;;;;;;;;;;5031098;28;20025;-44
2022/06/02 15:19:57;;;;;;;11.43;2.72;;;;;;;;;;5029860;28;20447;-52
2022/06/02 15:22:33;;;;;;;16.17;3.38;;;;;;;;;;5029755;28;20478;-48
2022/06/02 15:25:18;;;;;;;21.85;3.00;;;;;;;;;;5012997;28;20124;-45
2022/06/02 15:28:03;;;;;;;21.50;3.25;;;;;;;;;;5030961;28;20076;-46
2022/06/02 15:30:38;;;;;;;21.92;3.83;;;;;;;;;;5029555;28;20037;-43
2022/06/02 15:33:15;;;;;;;23.33;4.65;;;;;;;;;;5030617;28;20377;-49
2022/06/02 15:35:57;;;;;;;74.88;16.67;;;;;;;;;;5030395;28;20033;-46
2022/06/02 15:38:27;;;;;;;105.85;25.20;;;;;;;;;;5029778;28;20049;-44
2022/06/02 15:40:57;;;;;;;102.05;26.65;;;;;;;;;;5029523;28;20040;-49
2022/06/02 15:43:30;;;;;;;129.98;31.55;;;;;;;;;;5031318;28;20030;-50
2022/06/02 15:46:06;;;;;;;132.52;33.63;;;;;;;;;;5032320;28;20360;-43
2022/06/02 15:48:49;;;;;;;123.63;33.67;;;;;;;;;;5030722;28;20534;-48
2022/06/02 15:51:28;;;;;;;134.13;35.67;;;;;;;;;;5029683;28;20056;-43